createdAt,value
2023-03-31T00:00:48.775Z,2.50
2023-03-31T00:03:21.806Z,6.70
2023-03-31T00:05:48.890Z,3.97
2023-03-31T00:08:15.516Z,4.93
2023-03-31T00:10:46.630Z,3.90
2023-03-31T00:13:14.218Z,3.83
2023-03-31T00:15:41.223Z,3.17
2023-03-31T00:18:07.988Z,3.07
2023-03-31T00:20:37.871Z,2.63
2023-03-31T00:23:10.818Z,3.77
2023-03-31T00:25:41.682Z,4.10
2023-03-31T00:28:08.640Z,2.70
2023-03-31T00:30:35.410Z,3.80
2023-03-31T00:33:02.556Z,2.30
2023-03-31T00:35:29.388Z,2.90
2023-03-31T00:37:57.807Z,3.07
2023-03-31T00:40:24.629Z,3.33
2023-03-31T00:42:51.268Z,3.33
2023-03-31T00:45:23.646Z,3.07
2023-03-31T00:48:14.866Z,2.40
2023-03-31T00:50:50.404Z,2.17
2023-03-31T00:53:22.594Z,2.70
2023-03-31T00:55:53.008Z,3.23
2023-03-31T00:58:21.723Z,3.00
2023-03-31T01:00:51.309Z,2.20
2023-03-31T01:03:19.327Z,2.70
2023-03-31T01:05:51.161Z,2.07
2023-03-31T01:08:24.262Z,3.03
2023-03-31T01:10:54.665Z,2.73
2023-03-31T01:13:22.352Z,2.80
2023-03-31T01:15:49.401Z,2.60
2023-03-31T01:18:21.273Z,2.40
2023-03-31T01:21:19.149Z,2.70
2023-03-31T01:24:07.186Z,2.10
2023-03-31T01:27:01.810Z,2.40
2023-03-31T01:29:49.740Z,2.30
2023-03-31T01:33:03.771Z,2.40
2023-03-31T01:36:09.502Z,2.97
2023-03-31T01:39:08.781Z,2.40
2023-03-31T01:41:47.835Z,2.80
2023-03-31T01:44:28.053Z,2.97
2023-03-31T01:47:11.141Z,3.00
2023-03-31T01:49:40.806Z,1.90
2023-03-31T01:52:22.687Z,2.20
2023-03-31T01:54:55.296Z,2.30
2023-03-31T01:57:29.644Z,2.10
2023-03-31T02:00:04.681Z,3.00
2023-03-31T02:02:57.733Z,2.23
2023-03-31T02:05:30.139Z,1.83
2023-03-31T02:08:02.718Z,2.33
2023-03-31T02:10:31.839Z,2.00
2023-03-31T02:13:01.498Z,2.30
2023-03-31T02:15:33.446Z,1.90
2023-03-31T02:18:06.159Z,2.07
2023-03-31T02:20:33.783Z,2.10
2023-03-31T02:23:00.798Z,2.07
2023-03-31T02:25:38.626Z,2.00
2023-03-31T02:28:16.262Z,2.00
2023-03-31T02:30:52.972Z,2.23
2023-03-31T02:33:19.734Z,2.63
2023-03-31T02:35:46.576Z,2.30
2023-03-31T02:38:14.024Z,2.57
2023-03-31T02:40:40.829Z,3.17
2023-03-31T02:43:07.600Z,2.10
2023-03-31T02:45:41.826Z,2.60
2023-03-31T02:48:22.455Z,2.03
2023-03-31T02:51:22.956Z,2.13
2023-03-31T02:53:58.666Z,2.13
2023-03-31T02:57:07.121Z,1.83
2023-03-31T02:59:45.865Z,2.70
2023-03-31T03:02:15.730Z,2.20
2023-03-31T03:04:58.461Z,2.13
2023-03-31T03:07:29.112Z,2.13
2023-03-31T03:10:05.099Z,2.47
2023-03-31T03:12:50.711Z,2.40
2023-03-31T03:15:24.682Z,1.90
2023-03-31T03:17:52.006Z,1.80
2023-03-31T03:20:20.711Z,2.03
2023-03-31T03:22:47.525Z,1.80
2023-03-31T03:25:17.218Z,1.80
2023-03-31T03:27:44.332Z,1.77
2023-03-31T03:30:12.666Z,2.10
2023-03-31T03:32:39.411Z,1.87
2023-03-31T03:35:07.129Z,1.80
2023-03-31T03:37:35.337Z,1.87
2023-03-31T03:40:02.044Z,2.20
2023-03-31T03:42:29.895Z,2.10
2023-03-31T03:44:56.588Z,2.20
2023-03-31T03:47:24.068Z,1.70
2023-03-31T03:49:51.527Z,2.00
2023-03-31T03:52:18.179Z,2.37
2023-03-31T03:54:45.054Z,2.43
2023-03-31T03:57:11.840Z,2.00
2023-03-31T03:59:38.520Z,2.20
2023-03-31T04:02:06.420Z,2.50
2023-03-31T04:04:33.185Z,2.40
2023-03-31T04:06:59.878Z,2.37
2023-03-31T04:09:26.527Z,2.13
2023-03-31T04:11:53.255Z,2.23
2023-03-31T04:14:19.877Z,2.20
2023-03-31T04:16:46.930Z,2.03
2023-03-31T04:19:17.511Z,2.23
2023-03-31T04:21:50.767Z,2.17
2023-03-31T04:24:21.826Z,2.27
2023-03-31T04:26:50.973Z,2.07
2023-03-31T04:29:19.801Z,2.17
2023-03-31T04:31:46.661Z,1.67
2023-03-31T04:34:15.385Z,1.90
2023-03-31T04:36:48.001Z,2.30
2023-03-31T04:39:26.855Z,2.07
2023-03-31T04:41:54.000Z,1.90
2023-03-31T04:44:20.928Z,2.10
2023-03-31T04:46:47.815Z,1.77
2023-03-31T04:49:14.558Z,2.10
2023-03-31T04:51:41.364Z,1.43
2023-03-31T04:54:08.164Z,2.00
2023-03-31T04:56:34.905Z,1.63
2023-03-31T04:59:03.717Z,2.23
2023-03-31T05:01:36.317Z,2.23
2023-03-31T05:04:06.737Z,2.03
2023-03-31T05:06:33.777Z,2.60
2023-03-31T05:09:00.586Z,2.23
2023-03-31T05:11:27.474Z,2.60
2023-03-31T05:13:54.464Z,2.13
2023-03-31T05:16:21.734Z,2.20
2023-03-31T05:18:48.464Z,2.60
2023-03-31T05:21:17.662Z,2.37
2023-03-31T05:23:44.754Z,2.10
2023-03-31T05:26:11.954Z,2.07
2023-03-31T05:28:38.787Z,2.97
2023-03-31T05:31:07.303Z,2.50
2023-03-31T05:33:35.024Z,3.17
2023-03-31T05:36:01.667Z,2.80
2023-03-31T05:38:31.797Z,3.17
2023-03-31T05:40:58.506Z,3.00
2023-03-31T05:43:25.414Z,2.30
2023-03-31T05:45:52.184Z,2.30
2023-03-31T05:48:19.530Z,2.30
2023-03-31T05:50:46.459Z,2.27
2023-03-31T05:53:13.942Z,3.83
2023-03-31T05:55:40.745Z,2.27
2023-03-31T05:58:08.550Z,2.73
2023-03-31T06:00:36.266Z,2.80
2023-03-31T06:03:03.074Z,2.40
2023-03-31T06:05:31.323Z,2.93
2023-03-31T06:07:58.000Z,2.30
2023-03-31T06:10:24.665Z,2.60
2023-03-31T06:12:51.637Z,2.50
2023-03-31T06:15:18.272Z,2.80
2023-03-31T06:17:45.002Z,2.57
2023-03-31T06:20:24.551Z,3.40
2023-03-31T06:22:54.298Z,2.70
2023-03-31T06:25:21.619Z,2.83
2023-03-31T06:27:48.430Z,2.97
2023-03-31T06:30:15.198Z,2.87
2023-03-31T06:32:41.871Z,3.20
2023-03-31T06:35:09.070Z,3.10
2023-03-31T06:37:35.850Z,2.90
2023-03-31T06:40:02.914Z,3.13
2023-03-31T06:42:29.852Z,2.80
2023-03-31T06:44:56.541Z,3.17
2023-03-31T06:47:23.273Z,3.30
2023-03-31T06:49:49.984Z,2.80
2023-03-31T06:52:16.712Z,2.90
2023-03-31T06:54:43.359Z,3.03
2023-03-31T06:57:10.243Z,3.10
2023-03-31T06:59:36.979Z,3.00
2023-03-31T07:02:04.006Z,3.40
2023-03-31T07:04:30.762Z,3.50
2023-03-31T07:06:58.839Z,2.93
2023-03-31T07:09:25.632Z,3.03
2023-03-31T07:11:52.429Z,3.27
2023-03-31T07:14:19.066Z,3.20
2023-03-31T07:16:46.002Z,2.80
2023-03-31T07:19:13.451Z,3.30
2023-03-31T07:21:40.092Z,3.70
2023-03-31T07:24:06.973Z,3.33
2023-03-31T07:26:33.753Z,5.50
2023-03-31T07:29:00.404Z,4.03
2023-03-31T07:31:27.141Z,4.70
2023-03-31T07:33:53.962Z,5.13
2023-03-31T07:36:21.024Z,3.47
2023-03-31T07:38:49.550Z,3.93
2023-03-31T07:41:19.092Z,3.60
2023-03-31T07:43:46.649Z,3.43
2023-03-31T07:46:21.909Z,3.10
2023-03-31T07:48:49.652Z,4.60
2023-03-31T07:51:19.115Z,4.27
2023-03-31T07:53:46.526Z,3.50
2023-03-31T07:56:13.388Z,3.70
2023-03-31T07:58:40.412Z,3.30
2023-03-31T08:01:08.267Z,3.60
2023-03-31T08:03:35.234Z,3.70
2023-03-31T08:06:01.961Z,6.63
2023-03-31T08:08:28.758Z,9.60
2023-03-31T08:10:55.507Z,4.47
2023-03-31T08:13:26.292Z,4.43
2023-03-31T08:15:53.037Z,4.47
2023-03-31T08:18:20.039Z,3.83
2023-03-31T08:20:49.751Z,4.07
2023-03-31T08:23:16.357Z,5.30
2023-03-31T08:25:43.062Z,4.73
2023-03-31T08:28:14.027Z,3.67
2023-03-31T08:30:41.672Z,4.20
2023-03-31T08:33:08.859Z,6.53
2023-03-31T08:35:36.122Z,3.87
2023-03-31T08:38:03.239Z,4.87
2023-03-31T08:40:31.550Z,7.53
2023-03-31T08:43:28.068Z,8.10
2023-03-31T08:45:56.091Z,4.23
2023-03-31T08:48:30.949Z,6.77
2023-03-31T08:51:03.327Z,4.23
2023-03-31T08:53:35.275Z,4.70
2023-03-31T08:56:06.287Z,4.13
2023-03-31T08:58:51.760Z,4.63
2023-03-31T09:01:55.687Z,3.40
2023-03-31T09:04:32.517Z,4.07
2023-03-31T09:07:15.572Z,4.27
2023-03-31T09:10:10.365Z,3.30
2023-03-31T09:12:59.101Z,5.07
2023-03-31T09:15:41.370Z,3.10
2023-03-31T09:18:21.960Z,4.67
2023-03-31T09:20:53.398Z,3.63
2023-03-31T09:23:32.256Z,2.70
2023-03-31T09:26:01.652Z,2.90
2023-03-31T09:28:39.097Z,3.30
2023-03-31T09:31:15.951Z,2.97
2023-03-31T09:33:45.917Z,3.23
2023-03-31T09:36:24.366Z,3.03
2023-03-31T09:38:51.694Z,2.37
2023-03-31T09:41:19.320Z,2.80
2023-03-31T09:43:47.763Z,3.50
2023-03-31T09:46:33.229Z,2.67
2023-03-31T09:49:28.578Z,2.20
2023-03-31T09:52:04.103Z,2.83
2023-03-31T09:54:51.462Z,2.10
2023-03-31T09:57:29.932Z,2.40
2023-03-31T10:00:16.591Z,2.80
2023-03-31T10:02:45.808Z,2.60
2023-03-31T10:05:37.030Z,2.40
2023-03-31T10:08:25.711Z,4.00
2023-03-31T10:11:09.787Z,2.50
2023-03-31T10:13:46.423Z,3.43
2023-03-31T10:16:28.482Z,3.10
2023-03-31T10:18:57.366Z,12.43
2023-03-31T10:21:35.073Z,11.50
2023-03-31T10:24:08.137Z,5.60
2023-03-31T10:26:35.393Z,5.70
2023-03-31T10:29:02.645Z,4.53
2023-03-31T10:31:37.255Z,7.57
2023-03-31T10:34:12.865Z,12.70
2023-03-31T10:36:47.533Z,4.83
2023-03-31T10:39:17.170Z,4.73
2023-03-31T10:41:50.594Z,3.37
2023-03-31T10:44:38.147Z,3.30
2023-03-31T10:47:33.211Z,3.90
2023-03-31T10:50:04.133Z,3.10
2023-03-31T10:52:45.374Z,3.00
2023-03-31T10:55:24.777Z,2.67
2023-03-31T10:58:58.154Z,2.90
2023-03-31T11:02:01.018Z,3.77
2023-03-31T11:04:44.258Z,3.27
2023-03-31T11:07:45.551Z,2.17
2023-03-31T11:10:27.061Z,2.77
2023-03-31T11:13:05.079Z,3.27
2023-03-31T11:15:37.654Z,2.30
2023-03-31T11:18:32.454Z,6.63
2023-03-31T11:21:23.284Z,10.77
2023-03-31T11:24:07.105Z,13.07
2023-03-31T11:27:04.205Z,5.40
2023-03-31T11:29:38.187Z,3.50
2023-03-31T11:32:04.880Z,5.10
2023-03-31T11:35:04.273Z,5.13
2023-03-31T11:37:37.020Z,4.03
2023-03-31T11:40:32.161Z,8.63
2023-03-31T11:43:27.577Z,5.23
2023-03-31T11:46:01.756Z,3.93
2023-03-31T11:48:40.364Z,4.93
2023-03-31T11:51:14.278Z,8.13
2023-03-31T11:53:45.646Z,4.50
2023-03-31T11:56:13.025Z,9.87
2023-03-31T11:58:51.404Z,4.97
2023-03-31T12:01:27.018Z,3.63
2023-03-31T12:04:11.556Z,2.60
2023-03-31T12:06:42.623Z,2.90
2023-03-31T12:09:30.552Z,2.33
2023-03-31T12:12:28.912Z,3.00
2023-03-31T12:15:08.379Z,3.10
2023-03-31T12:17:41.708Z,2.67
2023-03-31T12:20:41.232Z,3.13
2023-03-31T12:23:15.391Z,2.30
2023-03-31T12:26:08.427Z,2.10
2023-03-31T12:28:38.924Z,2.07
2023-03-31T12:31:08.424Z,1.70
2023-03-31T12:33:43.308Z,2.57
2023-03-31T12:36:18.096Z,1.50
2023-03-31T12:39:23.116Z,1.70
2023-03-31T12:42:27.754Z,1.87
2023-03-31T12:45:12.152Z,1.60
2023-03-31T12:47:59.719Z,2.30
2023-03-31T12:51:10.064Z,1.70
2023-03-31T12:53:36.729Z,2.10
2023-03-31T12:56:03.792Z,1.53
2023-03-31T12:58:33.128Z,1.37
2023-03-31T13:01:21.518Z,1.27
2023-03-31T13:04:26.772Z,1.73
2023-03-31T13:06:57.251Z,1.60
2023-03-31T13:09:33.172Z,1.50
2023-03-31T13:12:08.152Z,1.83
2023-03-31T13:14:40.205Z,1.93
2023-03-31T13:17:36.166Z,2.37
2023-03-31T13:20:26.334Z,1.60
2023-03-31T13:23:02.496Z,1.90
2023-03-31T13:25:29.149Z,1.43
2023-03-31T13:27:57.753Z,1.70
2023-03-31T13:30:36.842Z,1.70
2023-03-31T13:33:09.996Z,2.03
2023-03-31T13:35:39.338Z,2.47
2023-03-31T13:38:23.627Z,1.63
2023-03-31T13:41:06.746Z,2.10
2023-03-31T13:43:51.459Z,1.50
2023-03-31T13:46:46.104Z,2.43
2023-03-31T13:49:31.731Z,1.40
2023-03-31T13:52:01.152Z,3.37
2023-03-31T13:55:25.204Z,5.07
2023-03-31T13:58:35.111Z,2.23
2023-03-31T14:01:26.806Z,2.77
2023-03-31T14:04:02.314Z,3.87
2023-03-31T14:06:50.266Z,4.03
2023-03-31T14:09:31.388Z,5.43
2023-03-31T14:12:18.360Z,3.90
2023-03-31T14:14:45.162Z,3.63
2023-03-31T14:17:12.302Z,3.70
2023-03-31T14:20:10.539Z,2.33
2023-03-31T14:23:06.475Z,2.60
2023-03-31T14:26:03.819Z,2.63
2023-03-31T14:29:01.064Z,3.10
2023-03-31T14:31:45.243Z,3.20
2023-03-31T14:34:39.953Z,2.83
2023-03-31T14:37:13.588Z,5.20
2023-03-31T14:39:43.393Z,3.07
2023-03-31T14:42:19.018Z,2.83
2023-03-31T14:44:48.562Z,6.13
2023-03-31T14:47:20.759Z,2.70
2023-03-31T14:49:47.924Z,4.07
2023-03-31T14:52:19.142Z,2.97
2023-03-31T14:54:47.681Z,3.00
2023-03-31T14:57:20.505Z,3.03
2023-03-31T14:59:52.710Z,3.00
2023-03-31T15:02:32.697Z,3.50
2023-03-31T15:05:03.175Z,2.90
2023-03-31T15:07:30.386Z,2.90
2023-03-31T15:09:57.310Z,3.10
2023-03-31T15:12:25.014Z,2.70
2023-03-31T15:14:57.019Z,3.97
2023-03-31T15:17:29.455Z,2.80
2023-03-31T15:19:58.952Z,6.57
2023-03-31T15:22:28.736Z,6.50
2023-03-31T15:24:56.066Z,6.57
2023-03-31T15:27:39.251Z,3.40
2023-03-31T15:30:08.936Z,3.50
2023-03-31T15:32:38.996Z,3.70
2023-03-31T15:35:20.926Z,3.00
2023-03-31T15:37:51.033Z,2.97
2023-03-31T15:40:21.015Z,2.70
2023-03-31T15:43:01.605Z,2.80
2023-03-31T15:45:53.395Z,4.33
2023-03-31T15:48:23.106Z,2.57
2023-03-31T15:50:50.420Z,2.27
2023-03-31T15:53:28.565Z,2.10
2023-03-31T15:56:02.555Z,2.20
2023-03-31T15:58:53.494Z,2.20
2023-03-31T16:01:20.860Z,2.20
2023-03-31T16:03:47.822Z,4.20
2023-03-31T16:06:39.492Z,4.53
2023-03-31T16:09:17.630Z,4.47
2023-03-31T16:11:50.489Z,5.13
2023-03-31T16:14:29.545Z,5.00
2023-03-31T16:17:06.652Z,4.00
2023-03-31T16:19:43.445Z,3.20
2023-03-31T16:22:16.985Z,4.87
2023-03-31T16:24:44.198Z,3.63
2023-03-31T16:27:11.062Z,3.13
2023-03-31T16:29:38.551Z,3.53
2023-03-31T16:32:12.206Z,3.00
2023-03-31T16:34:55.784Z,3.67
2023-03-31T16:37:23.232Z,3.20
2023-03-31T16:39:50.433Z,3.57
2023-03-31T16:42:17.470Z,2.77
2023-03-31T16:44:50.000Z,3.57
2023-03-31T16:47:34.747Z,3.10
2023-03-31T16:50:06.991Z,3.60
2023-03-31T16:52:33.612Z,5.00
2023-03-31T16:55:00.374Z,3.63
2023-03-31T16:57:27.153Z,2.97
2023-03-31T16:59:54.466Z,2.50
2023-03-31T17:02:22.497Z,18.33
2023-03-31T17:04:49.536Z,10.07
2023-03-31T17:07:17.365Z,16.07
2023-03-31T17:09:43.969Z,5.53
2023-03-31T17:12:10.650Z,4.10
2023-03-31T17:14:37.575Z,8.50
2023-03-31T17:17:04.238Z,4.53
2023-03-31T17:19:31.472Z,4.47
2023-03-31T17:22:01.870Z,4.27
2023-03-31T17:24:28.612Z,10.80
2023-03-31T17:26:55.505Z,18.20
2023-03-31T17:29:22.286Z,8.13
2023-03-31T17:31:48.963Z,11.27
2023-03-31T17:34:16.866Z,7.90
2023-03-31T17:36:44.421Z,11.80
2023-03-31T17:39:11.149Z,10.13
2023-03-31T17:41:38.143Z,9.60
2023-03-31T17:44:06.987Z,5.57
2023-03-31T17:46:34.657Z,4.87
2023-03-31T17:49:01.564Z,5.23
2023-03-31T17:51:28.822Z,5.87
2023-03-31T17:53:56.355Z,4.23
2023-03-31T17:56:23.894Z,5.90
2023-03-31T17:58:51.095Z,8.83
2023-03-31T18:01:17.763Z,8.33
2023-03-31T18:03:46.227Z,8.70
2023-03-31T18:06:14.626Z,4.63
2023-03-31T18:08:42.619Z,6.53
2023-03-31T18:11:10.079Z,8.03
2023-03-31T18:13:37.233Z,6.73
2023-03-31T18:16:05.580Z,3.90
2023-03-31T18:18:32.564Z,5.13
2023-03-31T18:21:04.472Z,7.47
2023-03-31T18:23:31.969Z,2.80
2023-03-31T18:25:58.665Z,3.43
2023-03-31T18:28:25.709Z,5.20
2023-03-31T18:30:53.242Z,6.63
2023-03-31T18:33:20.251Z,5.60
2023-03-31T18:35:47.126Z,3.93
2023-03-31T18:38:14.133Z,7.80
2023-03-31T18:40:47.695Z,5.50
2023-03-31T18:43:14.630Z,3.20
2023-03-31T18:45:42.123Z,3.60
2023-03-31T18:48:08.822Z,3.67
2023-03-31T18:50:35.928Z,2.50
2023-03-31T18:53:03.444Z,4.40
2023-03-31T18:55:30.379Z,2.23
2023-03-31T18:57:58.017Z,2.40
2023-03-31T19:00:24.824Z,2.83
2023-03-31T19:02:52.014Z,3.00
2023-03-31T19:05:19.344Z,2.43
2023-03-31T19:07:46.223Z,2.33
2023-03-31T19:10:13.167Z,4.10
2023-03-31T19:12:40.063Z,2.17
2023-03-31T19:15:07.724Z,1.80
2023-03-31T19:17:34.504Z,2.20
2023-03-31T19:20:01.409Z,1.77
2023-03-31T19:22:29.908Z,2.77
2023-03-31T19:24:56.737Z,2.13
2023-03-31T19:27:23.878Z,1.63
2023-03-31T19:29:51.076Z,2.40
2023-03-31T19:32:18.232Z,2.30
2023-03-31T19:34:46.249Z,1.90
2023-03-31T19:37:13.717Z,2.37
2023-03-31T19:39:41.232Z,2.20
2023-03-31T19:42:07.887Z,2.60
2023-03-31T19:44:34.540Z,2.60
2023-03-31T19:47:01.143Z,1.60
2023-03-31T19:49:27.891Z,2.80
2023-03-31T19:51:56.030Z,2.23
2023-03-31T19:54:22.692Z,2.23
2023-03-31T19:56:49.773Z,1.90
2023-03-31T19:59:16.522Z,1.83
2023-03-31T20:01:43.271Z,1.73
2023-03-31T20:04:12.105Z,1.97
2023-03-31T20:06:38.880Z,2.17
2023-03-31T20:09:09.282Z,1.87
2023-03-31T20:11:36.446Z,1.87
2023-03-31T20:14:04.104Z,2.03
2023-03-31T20:16:31.610Z,2.27
2023-03-31T20:19:01.824Z,1.77
2023-03-31T20:21:30.164Z,2.20
2023-03-31T20:23:57.355Z,4.80
2023-03-31T20:26:26.478Z,9.30
2023-03-31T20:28:54.906Z,7.23
2023-03-31T20:31:30.281Z,6.60
2023-03-31T20:33:58.006Z,4.00
2023-03-31T20:36:31.496Z,3.20
2023-03-31T20:38:59.837Z,3.47
2023-03-31T20:41:28.997Z,5.60
2023-03-31T20:43:56.610Z,3.30
2023-03-31T20:46:23.848Z,2.23
2023-03-31T20:48:53.188Z,2.77
2023-03-31T20:51:24.625Z,3.07
2023-03-31T20:53:53.077Z,1.93
2023-03-31T20:56:22.466Z,3.60
2023-03-31T20:58:50.759Z,2.07
2023-03-31T21:01:18.251Z,4.60
2023-03-31T21:03:46.192Z,4.40
2023-03-31T21:06:14.547Z,2.37
2023-03-31T21:08:45.298Z,3.10
2023-03-31T21:11:13.269Z,2.40
2023-03-31T21:13:39.957Z,2.13
2023-03-31T21:16:06.963Z,2.60
2023-03-31T21:18:34.812Z,2.33
2023-03-31T21:21:04.510Z,2.17
2023-03-31T21:23:31.541Z,2.30
2023-03-31T21:26:00.398Z,2.00
2023-03-31T21:28:32.800Z,3.57
2023-03-31T21:31:11.575Z,9.50
2023-03-31T21:33:41.643Z,6.07
2023-03-31T21:36:14.157Z,8.10
2023-03-31T21:38:41.274Z,2.90
2023-03-31T21:41:20.568Z,3.40
2023-03-31T21:43:47.264Z,3.00
2023-03-31T21:46:19.618Z,2.73
2023-03-31T21:48:48.736Z,2.93
2023-03-31T21:51:17.003Z,2.87
2023-03-31T21:53:43.830Z,2.80
2023-03-31T21:56:10.515Z,2.37
2023-03-31T21:58:37.117Z,2.27
2023-03-31T22:01:04.844Z,2.33
2023-03-31T22:03:34.265Z,2.33
2023-03-31T22:06:03.468Z,2.07
2023-03-31T22:08:31.545Z,2.03
2023-03-31T22:11:00.095Z,2.10
2023-03-31T22:13:28.163Z,2.10
2023-03-31T22:15:56.171Z,2.07
2023-03-31T22:18:22.979Z,2.63
2023-03-31T22:20:50.759Z,1.80
2023-03-31T22:23:17.782Z,1.60
2023-03-31T22:25:44.516Z,2.57
2023-03-31T22:28:12.589Z,4.83
2023-03-31T22:30:39.392Z,2.83
2023-03-31T22:33:06.219Z,2.67
2023-03-31T22:35:33.525Z,2.27
2023-03-31T22:38:01.596Z,3.23
2023-03-31T22:40:29.306Z,3.53
2023-03-31T22:42:58.273Z,3.10
2023-03-31T22:45:25.391Z,2.70
2023-03-31T22:47:52.175Z,2.10
2023-03-31T22:50:18.864Z,2.10
2023-03-31T22:52:45.952Z,2.70
2023-03-31T22:55:12.682Z,2.50
2023-03-31T22:57:39.503Z,2.20
2023-03-31T23:00:06.870Z,2.47
2023-03-31T23:02:33.520Z,1.43
2023-03-31T23:05:00.178Z,2.10
2023-03-31T23:07:27.978Z,2.00
2023-03-31T23:09:54.576Z,1.70
2023-03-31T23:12:21.185Z,2.03
2023-03-31T23:14:47.765Z,1.87
2023-03-31T23:17:14.416Z,2.50
2023-03-31T23:19:41.724Z,1.97
2023-03-31T23:22:08.578Z,2.13
2023-03-31T23:24:36.178Z,1.77
2023-03-31T23:27:02.741Z,1.90
2023-03-31T23:29:30.666Z,1.83
2023-03-31T23:31:57.618Z,2.10
2023-03-31T23:34:24.399Z,1.80
2023-03-31T23:36:52.625Z,1.97
2023-03-31T23:39:19.282Z,1.90
2023-03-31T23:41:46.416Z,1.80
2023-03-31T23:44:13.235Z,1.57
2023-03-31T23:46:42.006Z,2.13
2023-03-31T23:49:09.224Z,1.90
2023-03-31T23:51:36.283Z,1.93
2023-03-31T23:54:02.986Z,2.07
2023-03-31T23:56:30.600Z,2.07
2023-03-31T23:58:57.516Z,1.90
